createdAt,value
2024-02-14T00:01:11.789Z,69.52
2024-02-14T00:03:40.211Z,69.63
2024-02-14T00:06:08.752Z,69.77
2024-02-14T00:08:36.961Z,69.33
2024-02-14T00:11:05.269Z,69.18
2024-02-14T00:13:35.524Z,70.40
2024-02-14T00:16:03.929Z,70.43
2024-02-14T00:18:33.431Z,69.44
2024-02-14T00:21:01.966Z,69.88
2024-02-14T00:23:30.384Z,70.51
2024-02-14T00:25:58.415Z,70.59
2024-02-14T00:28:28.325Z,70.32
2024-02-14T00:30:56.461Z,69.88
2024-02-14T00:33:24.646Z,69.78
2024-02-14T00:35:54.260Z,70.40
2024-02-14T00:38:22.382Z,70.73
2024-02-14T00:40:50.332Z,70.05
2024-02-14T00:43:18.494Z,70.10
2024-02-14T00:45:46.766Z,69.87
2024-02-14T00:48:14.965Z,69.89
2024-02-14T00:50:43.425Z,70.16
2024-02-14T00:53:13.279Z,69.47
2024-02-14T00:55:41.217Z,70.50
2024-02-14T00:58:09.352Z,69.92
2024-02-14T01:00:37.333Z,70.03
2024-02-14T01:03:05.914Z,69.57
2024-02-14T01:05:34.089Z,70.24
2024-02-14T01:08:02.511Z,70.54
2024-02-14T01:10:31.855Z,70.09
2024-02-14T01:12:59.863Z,69.74
2024-02-14T01:15:27.812Z,69.83
2024-02-14T01:17:55.993Z,70.21
2024-02-14T01:20:24.101Z,71.06
2024-02-14T01:22:52.146Z,71.06
2024-02-14T01:25:20.091Z,71.30
2024-02-14T01:27:50.313Z,70.73
2024-02-14T01:30:19.318Z,71.26
2024-02-14T01:32:47.784Z,71.12
2024-02-14T01:35:15.790Z,70.33
2024-02-14T01:37:45.183Z,70.79
2024-02-14T01:40:14.176Z,70.74
2024-02-14T01:42:42.162Z,70.71
2024-02-14T01:45:12.046Z,70.43
2024-02-14T01:47:42.754Z,71.03
2024-02-14T01:50:12.933Z,70.63
2024-02-14T01:52:42.307Z,71.48
2024-02-14T01:55:10.959Z,70.82
2024-02-14T01:57:41.471Z,70.81
2024-02-14T02:00:16.664Z,70.43
2024-02-14T02:02:45.074Z,70.43
2024-02-14T02:05:18.178Z,70.43
2024-02-14T02:07:49.389Z,70.89
2024-02-14T02:10:18.036Z,70.33
2024-02-14T02:12:46.105Z,71.13
2024-02-14T02:15:15.737Z,70.23
2024-02-14T02:17:47.049Z,70.75
2024-02-14T02:20:16.625Z,70.46
2024-02-14T02:22:49.371Z,70.63
2024-02-14T02:25:17.458Z,71.23
2024-02-14T02:27:45.690Z,71.24
2024-02-14T02:30:14.989Z,70.82
2024-02-14T02:32:44.334Z,71.24
2024-02-14T02:35:12.504Z,70.73
2024-02-14T02:37:40.478Z,70.31
2024-02-14T02:40:12.023Z,70.61
2024-02-14T02:42:40.180Z,70.59
2024-02-14T02:45:09.264Z,70.90
2024-02-14T02:47:37.425Z,71.55
2024-02-14T02:50:07.140Z,71.60
2024-02-14T02:52:35.122Z,71.29
2024-02-14T02:55:03.503Z,70.66
2024-02-14T02:57:33.442Z,70.58
2024-02-14T03:00:01.687Z,70.31
2024-02-14T03:02:29.818Z,71.15
2024-02-14T03:04:58.419Z,70.49
2024-02-14T03:07:26.424Z,70.99
2024-02-14T03:09:54.421Z,70.43
2024-02-14T03:12:24.082Z,70.13
2024-02-14T03:14:53.505Z,70.47
2024-02-14T03:17:21.553Z,70.65
2024-02-14T03:19:52.962Z,71.05
2024-02-14T03:22:21.082Z,71.07
2024-02-14T03:24:49.960Z,70.88
2024-02-14T03:27:18.440Z,71.07
2024-02-14T03:29:48.664Z,71.36
2024-02-14T03:32:18.460Z,71.50
2024-02-14T03:34:46.470Z,71.14
2024-02-14T03:37:14.496Z,72.11
2024-02-14T03:39:42.548Z,71.68
2024-02-14T03:42:10.749Z,71.42
2024-02-14T03:44:39.554Z,72.05
2024-02-14T03:47:07.686Z,72.16
2024-02-14T03:49:37.248Z,72.07
2024-02-14T03:52:11.033Z,71.94
2024-02-14T03:54:39.297Z,72.12
2024-02-14T03:57:10.037Z,71.72
2024-02-14T03:59:40.333Z,71.31
2024-02-14T04:02:11.262Z,71.58
2024-02-14T04:04:41.449Z,71.77
2024-02-14T04:07:10.785Z,71.24
2024-02-14T04:09:39.154Z,71.17
2024-02-14T04:12:08.120Z,71.68
2024-02-14T04:14:36.414Z,71.45
2024-02-14T04:17:04.613Z,71.80
2024-02-14T04:19:32.750Z,72.19
2024-02-14T04:22:02.254Z,71.55
2024-02-14T04:24:30.846Z,71.61
2024-02-14T04:26:58.953Z,71.70
2024-02-14T04:29:28.016Z,72.16
2024-02-14T04:31:56.247Z,71.21
2024-02-14T04:34:24.259Z,71.49
2024-02-14T04:36:52.573Z,71.16
2024-02-14T04:39:21.901Z,71.62
2024-02-14T04:41:57.353Z,71.87
2024-02-14T04:44:30.246Z,72.09
2024-02-14T04:46:59.498Z,72.48
2024-02-14T04:49:27.938Z,71.94
2024-02-14T04:51:56.718Z,71.99
2024-02-14T04:54:26.309Z,71.45
2024-02-14T04:56:57.245Z,71.79
2024-02-14T04:59:27.815Z,72.38
2024-02-14T05:01:57.515Z,72.04
2024-02-14T05:04:25.766Z,72.15
2024-02-14T05:06:57.251Z,71.90
2024-02-14T05:09:28.546Z,69.56
2024-02-14T05:11:56.566Z,70.53
2024-02-14T05:14:24.804Z,71.30
2024-02-14T05:16:53.009Z,71.25
2024-02-14T05:19:23.136Z,71.47
2024-02-14T05:21:51.462Z,71.31
2024-02-14T05:24:19.928Z,70.91
2024-02-14T05:26:49.657Z,70.99
2024-02-14T05:29:19.959Z,71.70
2024-02-14T05:31:49.952Z,71.42
2024-02-14T05:34:18.387Z,71.53
2024-02-14T05:36:48.057Z,71.64
2024-02-14T05:39:17.283Z,72.01
2024-02-14T05:41:45.835Z,72.33
2024-02-14T05:44:15.288Z,72.23
2024-02-14T05:46:43.578Z,72.29
2024-02-14T05:49:11.941Z,72.01
2024-02-14T05:51:39.979Z,71.46
2024-02-14T05:54:08.197Z,71.63
2024-02-14T05:56:36.243Z,71.46
2024-02-14T05:59:04.527Z,71.51
2024-02-14T06:01:33.957Z,71.63
2024-02-14T06:04:02.376Z,71.81
2024-02-14T06:06:30.418Z,71.88
2024-02-14T06:08:59.213Z,71.83
2024-02-14T06:11:27.716Z,71.50
2024-02-14T06:13:55.930Z,71.51
2024-02-14T06:16:23.920Z,71.63
2024-02-14T06:18:53.597Z,72.11
2024-02-14T06:21:21.738Z,71.98
2024-02-14T06:23:49.843Z,71.80
2024-02-14T06:26:18.944Z,71.76
2024-02-14T06:28:47.381Z,72.30
2024-02-14T06:31:15.416Z,72.02
2024-02-14T06:33:45.295Z,72.17
2024-02-14T06:36:14.797Z,72.22
2024-02-14T06:38:42.905Z,72.54
2024-02-14T06:41:10.893Z,72.53
2024-02-14T06:43:40.522Z,72.23
2024-02-14T06:46:08.502Z,72.13
2024-02-14T06:48:37.035Z,72.14
2024-02-14T06:51:05.517Z,72.43
2024-02-14T06:53:35.152Z,71.96
2024-02-14T06:56:03.221Z,72.05
2024-02-14T06:58:31.346Z,72.49
2024-02-14T07:00:59.477Z,72.16
2024-02-14T07:03:27.664Z,72.07
2024-02-14T07:05:55.873Z,71.79
2024-02-14T07:08:25.196Z,72.05
2024-02-14T07:10:54.753Z,72.04
2024-02-14T07:13:22.859Z,72.75
2024-02-14T07:15:51.113Z,72.24
2024-02-14T07:18:19.420Z,71.98
2024-02-14T07:20:47.558Z,71.92
2024-02-14T07:23:15.547Z,72.39
2024-02-14T07:25:43.589Z,72.42
2024-02-14T07:28:13.306Z,72.53
2024-02-14T07:30:41.658Z,72.52
2024-02-14T07:33:10.757Z,72.57
2024-02-14T07:35:39.480Z,73.06
2024-02-14T07:38:07.615Z,73.13
2024-02-14T07:40:35.590Z,72.42
2024-02-14T07:43:03.638Z,73.22
2024-02-14T07:45:33.125Z,73.14
2024-02-14T07:48:01.271Z,73.08
2024-02-14T07:50:29.855Z,73.62
2024-02-14T07:52:57.819Z,74.09
2024-02-14T07:55:25.879Z,74.79
2024-02-14T07:57:54.838Z,74.46
2024-02-14T08:00:24.699Z,74.64
2024-02-14T08:02:54.120Z,73.81
2024-02-14T08:05:22.186Z,72.90
2024-02-14T08:07:50.315Z,70.97
2024-02-14T08:10:18.407Z,70.44
2024-02-14T08:12:46.466Z,68.74
2024-02-14T08:15:14.581Z,68.40
2024-02-14T08:17:46.600Z,67.27
2024-02-14T08:20:17.085Z,66.40
2024-02-14T08:22:45.164Z,65.09
2024-02-14T08:25:14.042Z,63.77
2024-02-14T08:27:42.013Z,62.59
2024-02-14T08:30:10.724Z,60.40
2024-02-14T08:32:38.984Z,59.28
2024-02-14T08:35:08.726Z,58.67
2024-02-14T08:37:39.419Z,59.01
2024-02-14T08:40:08.514Z,59.75
2024-02-14T08:42:36.493Z,59.83
2024-02-14T08:45:04.793Z,59.11
2024-02-14T08:47:32.954Z,59.17
2024-02-14T08:50:01.058Z,59.19
2024-02-14T08:52:29.658Z,60.07
2024-02-14T08:54:59.088Z,59.78
2024-02-14T08:57:27.529Z,60.09
2024-02-14T08:59:56.341Z,60.33
2024-02-14T09:02:26.603Z,60.00
2024-02-14T09:04:54.672Z,59.84
2024-02-14T09:07:22.692Z,60.21
2024-02-14T09:09:50.784Z,59.94
2024-02-14T09:12:20.195Z,60.11
2024-02-14T09:14:48.244Z,60.12
2024-02-14T09:17:16.610Z,60.22
2024-02-14T09:19:44.775Z,60.35
2024-02-14T09:22:12.743Z,60.20
2024-02-14T09:24:40.795Z,60.18
2024-02-14T09:27:08.793Z,59.98
2024-02-14T09:29:39.568Z,59.57
2024-02-14T09:32:07.962Z,59.46
2024-02-14T09:34:36.779Z,59.75
2024-02-14T09:37:06.851Z,59.79
2024-02-14T09:39:37.889Z,59.26
2024-02-14T09:42:12.029Z,58.81
2024-02-14T09:44:42.565Z,57.95
2024-02-14T09:47:11.534Z,57.69
2024-02-14T09:49:42.109Z,57.64
2024-02-14T09:52:13.936Z,58.16
2024-02-14T09:54:42.643Z,58.17
2024-02-14T09:57:11.356Z,57.91
2024-02-14T09:59:41.447Z,58.00
2024-02-14T10:02:11.406Z,58.25
2024-02-14T10:04:40.321Z,58.05
2024-02-14T10:07:09.845Z,58.14
2024-02-14T10:09:43.438Z,58.05
2024-02-14T10:12:12.150Z,57.97
2024-02-14T10:14:41.736Z,57.43
2024-02-14T10:17:11.095Z,58.20
2024-02-14T10:19:39.157Z,57.85
2024-02-14T10:22:10.081Z,57.32
2024-02-14T10:24:38.046Z,56.76
2024-02-14T10:27:10.330Z,56.84
2024-02-14T10:29:38.585Z,56.24
2024-02-14T10:32:08.265Z,56.08
2024-02-14T10:34:41.118Z,56.73
2024-02-14T10:37:10.593Z,56.01
2024-02-14T10:39:40.995Z,56.25
2024-02-14T10:42:09.100Z,54.69
2024-02-14T10:44:38.681Z,54.59
2024-02-14T10:47:12.976Z,54.19
2024-02-14T10:49:44.804Z,53.99
2024-02-14T10:52:13.656Z,54.16
2024-02-14T10:54:41.865Z,52.39
2024-02-14T10:57:13.004Z,51.51
2024-02-14T10:59:47.173Z,50.60
2024-02-14T11:02:17.564Z,50.45
2024-02-14T11:04:45.946Z,50.20
2024-02-14T11:07:14.421Z,49.03
2024-02-14T11:09:43.283Z,49.42
2024-02-14T11:12:13.160Z,48.71
2024-02-14T11:14:46.438Z,49.51
2024-02-14T11:17:16.238Z,49.00
2024-02-14T11:19:44.513Z,49.61
2024-02-14T11:22:14.365Z,49.62
2024-02-14T11:24:42.658Z,49.93
2024-02-14T11:27:29.308Z,49.29
2024-02-14T11:30:02.639Z,48.99
2024-02-14T11:32:34.089Z,48.95
2024-02-14T11:35:02.200Z,48.66
2024-02-14T11:37:30.884Z,48.32
2024-02-14T11:39:59.537Z,48.15
2024-02-14T11:42:28.639Z,48.59
2024-02-14T11:44:57.736Z,47.49
2024-02-14T11:47:26.579Z,47.27
2024-02-14T11:49:56.086Z,47.60
2024-02-14T11:52:24.880Z,46.89
2024-02-14T11:54:52.894Z,46.74
2024-02-14T11:57:21.065Z,46.32
2024-02-14T11:59:54.194Z,45.84
2024-02-14T12:02:23.315Z,45.74
2024-02-14T12:04:55.062Z,46.21
2024-02-14T12:07:25.852Z,46.16
2024-02-14T12:09:54.242Z,45.84
2024-02-14T12:12:24.122Z,45.07
2024-02-14T12:14:54.298Z,45.41
2024-02-14T12:17:23.328Z,44.96
2024-02-14T12:19:53.202Z,44.89
2024-02-14T12:22:22.659Z,44.04
2024-02-14T12:24:53.473Z,44.25
2024-02-14T12:27:22.375Z,43.77
2024-02-14T12:29:51.054Z,44.14
2024-02-14T12:32:19.555Z,44.42
2024-02-14T12:34:47.721Z,44.25
2024-02-14T12:37:16.502Z,44.49
2024-02-14T12:39:44.503Z,43.03
2024-02-14T12:42:14.095Z,43.18
2024-02-14T12:44:42.274Z,42.97
2024-02-14T12:47:10.335Z,43.37
2024-02-14T12:49:38.549Z,43.51
2024-02-14T12:52:06.832Z,42.79
2024-02-14T12:54:35.130Z,42.88
2024-02-14T12:57:03.526Z,43.17
2024-02-14T12:59:33.101Z,43.36
2024-02-14T13:02:01.951Z,42.12
2024-02-14T13:04:30.007Z,42.59
2024-02-14T13:06:58.005Z,43.01
2024-02-14T13:09:26.153Z,42.82
2024-02-14T13:11:54.715Z,42.91
2024-02-14T13:14:22.722Z,42.87
2024-02-14T13:16:52.319Z,42.03
2024-02-14T13:19:20.824Z,41.67
2024-02-14T13:21:49.494Z,42.42
2024-02-14T13:24:18.414Z,42.35
2024-02-14T13:26:46.667Z,42.38
2024-02-14T13:29:14.979Z,42.67
2024-02-14T13:31:43.248Z,42.92
2024-02-14T13:34:13.220Z,43.24
2024-02-14T13:36:41.429Z,43.48
2024-02-14T13:39:10.017Z,43.78
2024-02-14T13:41:39.097Z,43.30
2024-02-14T13:44:08.569Z,44.09
2024-02-14T13:46:36.725Z,44.12
2024-02-14T13:49:05.066Z,43.94
2024-02-14T13:51:34.438Z,44.43
2024-02-14T13:54:02.506Z,44.21
2024-02-14T13:56:30.482Z,44.50
2024-02-14T13:58:58.692Z,44.26
2024-02-14T14:01:27.644Z,44.21
2024-02-14T14:03:57.019Z,44.55
2024-02-14T14:06:25.919Z,44.07
2024-02-14T14:08:56.011Z,43.96
2024-02-14T14:11:24.082Z,44.61
2024-02-14T14:13:52.156Z,44.34
2024-02-14T14:16:22.781Z,43.69
2024-02-14T14:18:54.581Z,43.31
2024-02-14T14:21:23.320Z,43.41
2024-02-14T14:23:51.460Z,43.40
2024-02-14T14:26:21.056Z,43.19
2024-02-14T14:28:49.066Z,44.06
2024-02-14T14:31:17.076Z,43.71
2024-02-14T14:33:45.254Z,43.87
2024-02-14T14:36:13.304Z,43.61
2024-02-14T14:38:42.038Z,43.67
2024-02-14T14:41:11.496Z,43.13
2024-02-14T14:43:41.408Z,43.48
2024-02-14T14:46:09.371Z,43.42
2024-02-14T14:48:37.500Z,43.87
2024-02-14T14:51:06.048Z,44.00
2024-02-14T14:53:35.345Z,43.94
2024-02-14T14:56:03.922Z,43.67
2024-02-14T14:58:34.672Z,43.38
2024-02-14T15:01:05.946Z,43.53
2024-02-14T15:03:34.333Z,43.94
2024-02-14T15:06:02.504Z,43.99
2024-02-14T15:08:30.845Z,44.20
2024-02-14T15:10:59.748Z,44.25
2024-02-14T15:13:28.854Z,44.00
2024-02-14T15:15:58.941Z,44.45
2024-02-14T15:18:28.776Z,44.74
2024-02-14T15:20:56.808Z,44.64
2024-02-14T15:23:24.740Z,44.88
2024-02-14T15:25:53.158Z,44.87
2024-02-14T15:28:27.517Z,45.40
2024-02-14T15:31:13.148Z,45.31
2024-02-14T15:33:42.913Z,45.74
2024-02-14T15:36:12.350Z,45.71
2024-02-14T15:38:40.498Z,45.60
2024-02-14T15:41:08.607Z,45.54
2024-02-14T15:43:37.786Z,45.77
2024-02-14T15:46:06.062Z,45.50
2024-02-14T15:48:34.575Z,45.62
2024-02-14T15:51:04.318Z,45.51
2024-02-14T15:53:33.066Z,45.70
2024-02-14T15:56:02.869Z,46.11
2024-02-14T15:58:31.406Z,46.13
2024-02-14T16:00:59.546Z,46.34
2024-02-14T16:03:28.034Z,46.39
2024-02-14T16:05:56.393Z,46.78
2024-02-14T16:08:28.624Z,46.68
2024-02-14T16:10:58.110Z,46.96
2024-02-14T16:13:26.151Z,47.17
2024-02-14T16:15:54.785Z,47.31
2024-02-14T16:18:22.948Z,47.40
2024-02-14T16:20:52.028Z,47.63
2024-02-14T16:23:20.321Z,47.81
2024-02-14T16:25:50.525Z,48.11
2024-02-14T16:28:18.641Z,48.25
2024-02-14T16:30:47.253Z,48.41
2024-02-14T16:33:15.361Z,48.64
2024-02-14T16:35:43.437Z,48.67
2024-02-14T16:38:11.484Z,48.85
2024-02-14T16:40:40.924Z,49.16
2024-02-14T16:43:13.304Z,49.62
2024-02-14T16:45:41.611Z,50.37
2024-02-14T16:48:12.277Z,50.51
2024-02-14T16:50:40.493Z,50.76
2024-02-14T16:53:08.515Z,51.01
2024-02-14T16:55:38.065Z,50.98
2024-02-14T16:58:06.833Z,51.13
2024-02-14T17:00:36.303Z,51.09
2024-02-14T17:03:11.428Z,51.19
2024-02-14T17:05:44.199Z,51.14
2024-02-14T17:08:12.590Z,51.38
2024-02-14T17:10:41.165Z,52.10
2024-02-14T17:13:10.021Z,52.43
2024-02-14T17:15:39.776Z,53.17
2024-02-14T17:18:09.618Z,53.61
2024-02-14T17:20:37.787Z,54.24
2024-02-14T17:23:06.167Z,54.29
2024-02-14T17:25:34.176Z,54.93
2024-02-14T17:28:02.183Z,55.10
2024-02-14T17:30:30.527Z,54.98
2024-02-14T17:33:02.246Z,55.84
2024-02-14T17:35:30.546Z,56.33
2024-02-14T17:37:58.657Z,56.66
2024-02-14T17:40:26.691Z,57.12
2024-02-14T17:42:54.708Z,57.10
2024-02-14T17:45:22.815Z,57.91
2024-02-14T17:47:51.020Z,58.24
2024-02-14T17:50:20.743Z,58.01
2024-02-14T17:52:49.691Z,58.16
2024-02-14T17:55:19.417Z,58.39
2024-02-14T17:57:48.191Z,58.71
2024-02-14T18:00:16.837Z,59.10
2024-02-14T18:02:44.983Z,59.30
2024-02-14T18:05:13.370Z,59.85
2024-02-14T18:07:42.804Z,59.91
2024-02-14T18:10:11.011Z,60.24
2024-02-14T18:12:39.179Z,60.32
2024-02-14T18:15:08.853Z,60.24
2024-02-14T18:17:37.218Z,60.73
2024-02-14T18:20:06.177Z,60.87
2024-02-14T18:22:35.240Z,60.98
2024-02-14T18:25:05.831Z,61.44
2024-02-14T18:27:33.941Z,61.78
2024-02-14T18:30:02.372Z,61.55
2024-02-14T18:32:30.477Z,61.47
2024-02-14T18:34:58.673Z,61.73
2024-02-14T18:37:26.950Z,61.95
2024-02-14T18:39:58.213Z,61.87
2024-02-14T18:42:27.972Z,62.09
2024-02-14T18:44:55.978Z,62.09
2024-02-14T18:47:24.739Z,62.02
2024-02-14T18:49:52.856Z,62.60
2024-02-14T18:52:21.101Z,62.96
2024-02-14T18:54:49.138Z,62.33
2024-02-14T18:57:17.192Z,62.53
2024-02-14T18:59:46.645Z,62.25
2024-02-14T19:02:15.159Z,62.58
2024-02-14T19:04:43.274Z,62.13
2024-02-14T19:07:12.545Z,62.49
2024-02-14T19:09:41.110Z,62.55
2024-02-14T19:12:09.567Z,62.72
2024-02-14T19:14:39.298Z,62.67
2024-02-14T19:17:08.811Z,63.22
2024-02-14T19:19:37.844Z,63.94
2024-02-14T19:22:07.594Z,64.19
2024-02-14T19:24:35.782Z,63.47
2024-02-14T19:27:03.931Z,63.22
2024-02-14T19:29:32.014Z,64.64
2024-02-14T19:32:00.254Z,64.11
2024-02-14T19:34:30.119Z,64.61
2024-02-14T19:36:58.206Z,63.86
2024-02-14T19:39:26.361Z,61.87
2024-02-14T19:41:54.746Z,63.22
2024-02-14T19:44:22.792Z,64.67
2024-02-14T19:46:51.587Z,64.79
2024-02-14T19:49:22.595Z,64.66
2024-02-14T19:51:53.736Z,64.66
2024-02-14T19:54:22.086Z,64.81
2024-02-14T19:56:50.776Z,64.79
2024-02-14T19:59:20.257Z,64.10
2024-02-14T20:01:48.258Z,64.06
2024-02-14T20:04:16.384Z,65.08
2024-02-14T20:06:44.411Z,64.69
2024-02-14T20:09:15.420Z,64.72
2024-02-14T20:11:46.077Z,64.88
2024-02-14T20:14:14.282Z,65.13
2024-02-14T20:16:42.748Z,64.72
2024-02-14T20:19:11.502Z,64.96
2024-02-14T20:21:39.726Z,65.39
2024-02-14T20:24:10.699Z,64.61
2024-02-14T20:26:40.344Z,64.66
2024-02-14T20:29:08.513Z,65.06
2024-02-14T20:31:37.147Z,65.48
2024-02-14T20:34:06.367Z,65.31
2024-02-14T20:36:38.310Z,65.90
2024-02-14T20:39:08.927Z,66.00
2024-02-14T20:41:37.865Z,66.50
2024-02-14T20:44:07.553Z,66.41
2024-02-14T20:46:36.692Z,66.27
2024-02-14T20:49:06.043Z,66.72
2024-02-14T20:51:36.406Z,66.41
2024-02-14T20:54:06.227Z,66.99
2024-02-14T20:56:34.537Z,67.27
2024-02-14T20:59:10.849Z,67.47
2024-02-14T21:01:48.191Z,67.18
2024-02-14T21:04:16.211Z,67.39
2024-02-14T21:06:44.291Z,67.12
2024-02-14T21:09:12.379Z,67.38
2024-02-14T21:11:41.256Z,67.12
2024-02-14T21:14:09.266Z,67.34
2024-02-14T21:16:37.515Z,67.28
2024-02-14T21:19:07.250Z,67.46
2024-02-14T21:21:36.791Z,67.68
2024-02-14T21:24:05.143Z,67.92
2024-02-14T21:26:33.259Z,68.04
2024-02-14T21:29:01.243Z,68.34
2024-02-14T21:31:30.686Z,68.44
2024-02-14T21:33:59.035Z,68.35
2024-02-14T21:36:28.488Z,68.71
2024-02-14T21:38:56.797Z,68.61
2024-02-14T21:41:26.469Z,68.83
2024-02-14T21:43:54.584Z,68.88
2024-02-14T21:46:24.432Z,68.65
2024-02-14T21:48:53.376Z,69.13
2024-02-14T21:51:21.889Z,68.84
2024-02-14T21:53:52.115Z,68.74
2024-02-14T21:56:20.268Z,68.66
2024-02-14T21:58:48.305Z,69.17
2024-02-14T22:01:16.499Z,69.14
2024-02-14T22:03:44.463Z,69.09
2024-02-14T22:06:12.633Z,68.66
2024-02-14T22:08:40.708Z,68.49
2024-02-14T22:11:12.130Z,68.57
2024-02-14T22:13:40.114Z,68.65
2024-02-14T22:16:10.124Z,69.05
2024-02-14T22:18:39.147Z,69.08
2024-02-14T22:21:07.788Z,69.01
2024-02-14T22:23:35.828Z,69.24
2024-02-14T22:26:04.697Z,69.41
2024-02-14T22:28:36.493Z,69.41
2024-02-14T22:31:04.583Z,69.46
2024-02-14T22:33:32.732Z,68.95
2024-02-14T22:36:01.520Z,69.04
2024-02-14T22:38:29.658Z,68.83
2024-02-14T22:40:57.716Z,68.78
2024-02-14T22:43:25.739Z,68.59
2024-02-14T22:45:55.047Z,68.99
2024-02-14T22:48:23.443Z,69.03
2024-02-14T22:50:51.986Z,68.87
2024-02-14T22:53:19.978Z,69.12
2024-02-14T22:55:49.531Z,68.93
2024-02-14T22:58:17.562Z,69.72
2024-02-14T23:00:45.571Z,69.42
2024-02-14T23:03:16.269Z,69.90
2024-02-14T23:05:45.340Z,68.90
2024-02-14T23:08:13.501Z,69.12
2024-02-14T23:10:41.602Z,69.14
2024-02-14T23:13:09.899Z,69.55
2024-02-14T23:15:38.146Z,69.51
2024-02-14T23:18:07.300Z,69.26
2024-02-14T23:20:39.311Z,69.43
2024-02-14T23:23:07.735Z,68.80
2024-02-14T23:25:35.751Z,68.34
2024-02-14T23:28:03.927Z,68.51
2024-02-14T23:30:31.935Z,68.83
2024-02-14T23:33:00.219Z,68.78
2024-02-14T23:35:28.810Z,68.91
2024-02-14T23:37:58.206Z,69.70
2024-02-14T23:40:26.197Z,69.29
2024-02-14T23:43:00.484Z,69.97
2024-02-14T23:45:28.749Z,69.18
2024-02-14T23:47:56.858Z,69.52
2024-02-14T23:50:26.295Z,69.60
2024-02-14T23:52:54.415Z,69.04
2024-02-14T23:55:24.033Z,69.03
2024-02-14T23:57:52.761Z,69.03
